sensor_id;sensor_type;location;lat;lon;timestamp;pressure;altitude;pressure_sealevel;temperature;humidity
38038;BME280;23843;51.320;12.340;2023-07-31T00:01:10;100010.91;;;16.71;100.00
38038;BME280;23843;51.320;12.340;2023-07-31T00:03:36;100005.00;;;16.77;100.00
38038;BME280;23843;51.320;12.340;2023-07-31T00:06:02;100004.66;;;16.81;100.00
38038;BME280;23843;51.320;12.340;2023-07-31T00:08:30;100013.97;;;16.87;100.00
38038;BME280;23843;51.320;12.340;2023-07-31T00:10:55;100006.66;;;16.89;100.00
38038;BME280;23843;51.320;12.340;2023-07-31T00:13:21;100008.94;;;16.94;100.00
38038;BME280;23843;51.320;12.340;2023-07-31T00:15:46;99998.84;;;16.97;100.00
38038;BME280;23843;51.320;12.340;2023-07-31T00:18:13;99998.84;;;16.97;100.00
38038;BME280;23843;51.320;12.340;2023-07-31T00:20:39;99988.38;;;16.94;100.00
38038;BME280;23843;51.320;12.340;2023-07-31T00:23:05;99995.28;;;16.97;100.00
38038;BME280;23843;51.320;12.340;2023-07-31T00:25:30;99999.41;;;17.01;100.00
38038;BME280;23843;51.320;12.340;2023-07-31T00:27:58;99990.53;;;17.00;100.00
38038;BME280;23843;51.320;12.340;2023-07-31T00:30:24;99988.69;;;17.01;100.00
38038;BME280;23843;51.320;12.340;2023-07-31T00:32:49;99993.66;;;17.05;100.00
38038;BME280;23843;51.320;12.340;2023-07-31T00:35:15;99988.19;;;17.07;100.00
38038;BME280;23843;51.320;12.340;2023-07-31T00:37:42;99987.06;;;17.09;100.00
38038;BME280;23843;51.320;12.340;2023-07-31T00:40:08;99983.41;;;17.10;100.00
38038;BME280;23843;51.320;12.340;2023-07-31T00:42:34;99983.66;;;17.07;100.00
38038;BME280;23843;51.320;12.340;2023-07-31T00:44:59;99973.81;;;17.08;100.00
38038;BME280;23843;51.320;12.340;2023-07-31T00:47:25;99991.53;;;17.09;100.00
38038;BME280;23843;51.320;12.340;2023-07-31T00:49:51;99989.59;;;17.11;100.00
38038;BME280;23843;51.320;12.340;2023-07-31T00:52:17;99985.78;;;17.14;100.00
38038;BME280;23843;51.320;12.340;2023-07-31T00:54:44;99983.72;;;17.17;100.00
38038;BME280;23843;51.320;12.340;2023-07-31T00:57:13;99972.59;;;17.22;100.00
38038;BME280;23843;51.320;12.340;2023-07-31T00:59:38;99974.56;;;17.20;100.00
38038;BME280;23843;51.320;12.340;2023-07-31T01:02:05;99976.69;;;17.26;100.00
38038;BME280;23843;51.320;12.340;2023-07-31T01:04:31;99971.34;;;17.26;100.00
38038;BME280;23843;51.320;12.340;2023-07-31T01:07:02;99976.69;;;17.26;100.00
38038;BME280;23843;51.320;12.340;2023-07-31T01:09:37;99973.28;;;17.24;100.00
38038;BME280;23843;51.320;12.340;2023-07-31T01:12:07;99973.88;;;17.27;100.00
38038;BME280;23843;51.320;12.340;2023-07-31T01:14:39;99970.22;;;17.28;100.00
38038;BME280;23843;51.320;12.340;2023-07-31T01:17:04;99969.09;;;17.31;100.00
38038;BME280;23843;51.320;12.340;2023-07-31T01:19:30;99964.72;;;17.30;100.00
38038;BME280;23843;51.320;12.340;2023-07-31T01:22:26;99963.91;;;17.29;100.00
38038;BME280;23843;51.320;12.340;2023-07-31T01:24:59;99963.72;;;17.31;100.00
38038;BME280;23843;51.320;12.340;2023-07-31T01:27:35;99957.53;;;17.30;100.00
38038;BME280;23843;51.320;12.340;2023-07-31T01:30:08;99963.91;;;17.29;100.00
38038;BME280;23843;51.320;12.340;2023-07-31T01:32:35;99951.34;;;17.30;100.00
38038;BME280;23843;51.320;12.340;2023-07-31T01:35:01;99950.50;;;17.29;100.00
38038;BME280;23843;51.320;12.340;2023-07-31T01:37:28;99948.78;;;17.28;100.00
38038;BME280;23843;51.320;12.340;2023-07-31T01:39:53;99956.69;;;17.30;100.00
38038;BME280;23843;51.320;12.340;2023-07-31T01:42:19;99956.56;;;17.31;100.00
38038;BME280;23843;51.320;12.340;2023-07-31T01:44:46;99947.94;;;17.28;100.00
38038;BME280;23843;51.320;12.340;2023-07-31T01:47:11;99951.63;;;17.27;100.00
38038;BME280;23843;51.320;12.340;2023-07-31T01:49:36;99953.31;;;17.28;100.00
38038;BME280;23843;51.320;12.340;2023-07-31T01:52:02;99957.53;;;17.30;100.00
38038;BME280;23843;51.320;12.340;2023-07-31T01:54:28;99941.47;;;17.30;100.00
38038;BME280;23843;51.320;12.340;2023-07-31T01:56:53;99942.59;;;17.28;100.00
38038;BME280;23843;51.320;12.340;2023-07-31T01:59:19;99951.19;;;17.22;100.00
38038;BME280;23843;51.320;12.340;2023-07-31T02:01:46;99937.22;;;17.18;100.00
38038;BME280;23843;51.320;12.340;2023-07-31T02:04:11;99940.88;;;17.17;100.00
38038;BME280;23843;51.320;12.340;2023-07-31T02:06:37;99936.38;;;17.18;100.00
38038;BME280;23843;51.320;12.340;2023-07-31T02:09:03;99927.34;;;17.19;100.00
38038;BME280;23843;51.320;12.340;2023-07-31T02:11:28;99927.63;;;17.16;100.00
38038;BME280;23843;51.320;12.340;2023-07-31T02:13:54;99913.97;;;17.19;100.00
38038;BME280;23843;51.320;12.340;2023-07-31T02:16:19;99920.59;;;17.15;100.00
38038;BME280;23843;51.320;12.340;2023-07-31T02:18:46;99918.03;;;17.13;100.00
38038;BME280;23843;51.320;12.340;2023-07-31T02:21:11;99904.09;;;17.09;100.00
38038;BME280;23843;51.320;12.340;2023-07-31T02:23:37;99908.13;;;17.04;100.00
38038;BME280;23843;51.320;12.340;2023-07-31T02:26:02;99910.09;;;17.02;100.00
38038;BME280;23843;51.320;12.340;2023-07-31T02:28:28;99907.31;;;17.03;100.00
38038;BME280;23843;51.320;12.340;2023-07-31T02:30:53;99905.34;;;17.05;100.00
38038;BME280;23843;51.320;12.340;2023-07-31T02:33:19;99905.34;;;17.05;100.00
38038;BME280;23843;51.320;12.340;2023-07-31T02:35:46;99897.59;;;17.02;100.00
38038;BME280;23843;51.320;12.340;2023-07-31T02:38:12;99903.63;;;17.04;100.00
38038;BME280;23843;51.320;12.340;2023-07-31T02:40:37;99900.00;;;17.05;100.00
38038;BME280;23843;51.320;12.340;2023-07-31T02:43:04;99894.63;;;17.05;100.00
38038;BME280;23843;51.320;12.340;2023-07-31T02:45:29;99892.09;;;17.04;100.00
38038;BME280;23843;51.320;12.340;2023-07-31T02:47:55;99897.19;;;17.07;100.00
38038;BME280;23843;51.320;12.340;2023-07-31T02:50:20;99890.13;;;17.06;100.00
38038;BME280;23843;51.320;12.340;2023-07-31T02:52:47;99895.16;;;16.99;100.00
38038;BME280;23843;51.320;12.340;2023-07-31T02:55:12;99898.84;;;16.98;100.00
38038;BME280;23843;51.320;12.340;2023-07-31T02:57:38;99885.28;;;16.90;100.00
38038;BME280;23843;51.320;12.340;2023-07-31T03:00:05;99869.25;;;16.90;100.00
38038;BME280;23843;51.320;12.340;2023-07-31T03:02:31;99888.66;;;16.92;100.00
38038;BME280;23843;51.320;12.340;2023-07-31T03:04:56;99890.38;;;16.93;100.00
38038;BME280;23843;51.320;12.340;2023-07-31T03:07:22;99884.03;;;16.94;100.00
38038;BME280;23843;51.320;12.340;2023-07-31T03:09:49;99890.09;;;16.96;100.00
38038;BME280;23843;51.320;12.340;2023-07-31T03:12:14;99889.38;;;16.94;100.00
38038;BME280;23843;51.320;12.340;2023-07-31T03:14:40;99885.72;;;16.95;100.00
38038;BME280;23843;51.320;12.340;2023-07-31T03:17:06;99889.78;;;16.89;100.00
38038;BME280;23843;51.320;12.340;2023-07-31T03:19:32;99882.03;;;16.86;100.00
38038;BME280;23843;51.320;12.340;2023-07-31T03:21:57;99878.50;;;16.86;100.00
38038;BME280;23843;51.320;12.340;2023-07-31T03:24:25;99876.13;;;16.83;100.00
38038;BME280;23843;51.320;12.340;2023-07-31T03:26:52;99871.16;;;16.78;100.00
38038;BME280;23843;51.320;12.340;2023-07-31T03:29:18;99872.97;;;16.78;100.00
38038;BME280;23843;51.320;12.340;2023-07-31T03:31:43;99879.03;;;16.80;100.00
38038;BME280;23843;51.320;12.340;2023-07-31T03:34:09;99878.78;;;16.83;100.00
38038;BME280;23843;51.320;12.340;2023-07-31T03:36:34;99872.00;;;16.79;100.00
38038;BME280;23843;51.320;12.340;2023-07-31T03:38:59;99878.19;;;16.79;100.00
38038;BME280;23843;51.320;12.340;2023-07-31T03:41:25;99881.00;;;16.78;100.00
38038;BME280;23843;51.320;12.340;2023-07-31T03:43:52;99875.88;;;16.75;100.00
38038;BME280;23843;51.320;12.340;2023-07-31T03:46:17;99883.47;;;16.69;100.00
38038;BME280;23843;51.320;12.340;2023-07-31T03:48:43;99867.16;;;16.73;100.00
38038;BME280;23843;51.320;12.340;2023-07-31T03:51:08;99873.63;;;16.70;100.00
38038;BME280;23843;51.320;12.340;2023-07-31T03:53:34;99873.88;;;16.67;100.00
38038;BME280;23843;51.320;12.340;2023-07-31T03:55:59;99875.84;;;16.65;100.00
38038;BME280;23843;51.320;12.340;2023-07-31T03:58:25;99867.41;;;16.69;100.00
38038;BME280;23843;51.320;12.340;2023-07-31T04:00:52;99869.13;;;16.71;100.00
38038;BME280;23843;51.320;12.340;2023-07-31T04:03:17;99872.25;;;16.76;100.00
38038;BME280;23843;51.320;12.340;2023-07-31T04:05:44;99864.63;;;16.71;100.00
38038;BME280;23843;51.320;12.340;2023-07-31T04:08:09;99867.16;;;16.73;100.00
38038;BME280;23843;51.320;12.340;2023-07-31T04:10:35;99862.50;;;16.75;100.00
38038;BME280;23843;51.320;12.340;2023-07-31T04:13:02;99867.38;;;16.81;100.00
38038;BME280;23843;51.320;12.340;2023-07-31T04:15:27;99864.06;;;16.77;100.00
38038;BME280;23843;51.320;12.340;2023-07-31T04:17:54;99861.56;;;16.76;100.00
38038;BME280;23843;51.320;12.340;2023-07-31T04:20:19;99861.31;;;16.79;100.00
38038;BME280;23843;51.320;12.340;2023-07-31T04:22:45;99858.72;;;16.77;100.00
38038;BME280;23843;51.320;12.340;2023-07-31T04:25:10;99861.31;;;16.79;100.00
38038;BME280;23843;51.320;12.340;2023-07-31T04:27:36;99859.59;;;16.78;100.00
38038;BME280;23843;51.320;12.340;2023-07-31T04:30:01;99857.88;;;16.77;100.00
38038;BME280;23843;51.320;12.340;2023-07-31T04:32:27;99852.53;;;16.77;100.00
38038;BME280;23843;51.320;12.340;2023-07-31T04:34:54;99856.78;;;16.79;100.00
38038;BME280;23843;51.320;12.340;2023-07-31T04:37:19;99861.31;;;16.79;100.00
38038;BME280;23843;51.320;12.340;2023-07-31T04:39:45;99844.69;;;16.85;100.00
38038;BME280;23843;51.320;12.340;2023-07-31T04:42:10;99851.75;;;16.86;100.00
38038;BME280;23843;51.320;12.340;2023-07-31T04:44:36;99857.09;;;16.86;100.00
38038;BME280;23843;51.320;12.340;2023-07-31T04:47:01;99852.59;;;16.86;100.00
38038;BME280;23843;51.320;12.340;2023-07-31T04:49:27;99846.41;;;16.86;100.00
38038;BME280;23843;51.320;12.340;2023-07-31T04:51:53;99852.03;;;16.83;100.00
38038;BME280;23843;51.320;12.340;2023-07-31T04:54:19;99847.94;;;16.79;100.00
38038;BME280;23843;51.320;12.340;2023-07-31T04:56:44;99852.03;;;16.83;100.00
38038;BME280;23843;51.320;12.340;2023-07-31T04:59:10;99849.75;;;16.78;100.00
38038;BME280;23843;51.320;12.340;2023-07-31T05:01:35;99846.94;;;16.80;100.00
38038;BME280;23843;51.320;12.340;2023-07-31T05:04:01;99850.19;;;16.83;100.00
38038;BME280;23843;51.320;12.340;2023-07-31T05:06:26;99847.53;;;16.83;100.00
38038;BME280;23843;51.320;12.340;2023-07-31T05:08:53;99844.69;;;16.85;100.00
38038;BME280;23843;51.320;12.340;2023-07-31T05:11:18;99846.97;;;16.89;100.00
38038;BME280;23843;51.320;12.340;2023-07-31T05:13:44;99854.44;;;16.86;100.00
38038;BME280;23843;51.320;12.340;2023-07-31T05:16:09;99860.91;;;16.83;100.00
38038;BME280;23843;51.320;12.340;2023-07-31T05:18:35;99844.41;;;16.78;100.00
38038;BME280;23843;51.320;12.340;2023-07-31T05:21:00;99853.38;;;16.77;100.00
38038;BME280;23843;51.320;12.340;2023-07-31T05:23:26;99854.75;;;16.72;100.00
38038;BME280;23843;51.320;12.340;2023-07-31T05:25:53;99850.25;;;16.72;100.00
38038;BME280;23843;51.320;12.340;2023-07-31T05:28:18;99846.34;;;16.76;100.00
38038;BME280;23843;51.320;12.340;2023-07-31T05:30:44;99846.47;;;16.75;100.00
38038;BME280;23843;51.320;12.340;2023-07-31T05:33:09;99850.69;;;16.77;100.00
38038;BME280;23843;51.320;12.340;2023-07-31T05:35:35;99850.75;;;16.87;100.00
38038;BME280;23843;51.320;12.340;2023-07-31T05:38:00;99847.84;;;16.90;100.00
38038;BME280;23843;51.320;12.340;2023-07-31T05:40:26;99842.75;;;16.87;100.00
38038;BME280;23843;51.320;12.340;2023-07-31T05:42:52;99846.69;;;16.83;100.00
38038;BME280;23843;51.320;12.340;2023-07-31T05:45:18;99845.56;;;16.85;100.00
38038;BME280;23843;51.320;12.340;2023-07-31T05:47:43;99845.16;;;16.90;100.00
38038;BME280;23843;51.320;12.340;2023-07-31T05:50:09;99857.25;;;16.94;100.00
38038;BME280;23843;51.320;12.340;2023-07-31T05:52:34;99855.75;;;17.01;100.00
38038;BME280;23843;51.320;12.340;2023-07-31T05:55:00;99859.25;;;17.02;100.00
38038;BME280;23843;51.320;12.340;2023-07-31T05:57:25;99849.56;;;17.01;100.00
38038;BME280;23843;51.320;12.340;2023-07-31T05:59:52;99849.25;;;16.94;100.00
38038;BME280;23843;51.320;12.340;2023-07-31T06:02:17;99857.28;;;17.04;100.00
38038;BME280;23843;51.320;12.340;2023-07-31T06:04:43;99850.09;;;17.04;100.00
38038;BME280;23843;51.320;12.340;2023-07-31T06:07:08;99857.16;;;17.05;100.00
38038;BME280;23843;51.320;12.340;2023-07-31T06:09:34;99847.31;;;17.06;100.00
38038;BME280;23843;51.320;12.340;2023-07-31T06:11:59;99855.06;;;17.09;100.00
38038;BME280;23843;51.320;12.340;2023-07-31T06:14:25;99855.47;;;17.14;100.00
38038;BME280;23843;51.320;12.340;2023-07-31T06:16:52;99850.72;;;17.18;100.00
38038;BME280;23843;51.320;12.340;2023-07-31T06:19:17;99847.47;;;17.24;100.00
38038;BME280;23843;51.320;12.340;2023-07-31T06:21:43;99845.50;;;17.26;100.00
38038;BME280;23843;51.320;12.340;2023-07-31T06:24:08;99854.25;;;17.28;100.00
38038;BME280;23843;51.320;12.340;2023-07-31T06:26:34;99849.03;;;17.36;100.00
38038;BME280;23843;51.320;12.340;2023-07-31T06:28:59;99853.44;;;17.47;100.00
38038;BME280;23843;51.320;12.340;2023-07-31T06:31:25;99852.75;;;17.54;100.00
38038;BME280;23843;51.320;12.340;2023-07-31T06:33:52;99855.84;;;17.60;100.00
38038;BME280;23843;51.320;12.340;2023-07-31T06:36:18;99860.78;;;17.64;100.00
38038;BME280;23843;51.320;12.340;2023-07-31T06:38:43;99856.69;;;17.70;100.00
38038;BME280;23843;51.320;12.340;2023-07-31T06:41:09;99853.44;;;17.76;100.00
38038;BME280;23843;51.320;12.340;2023-07-31T06:43:34;99855.28;;;17.75;100.00
38038;BME280;23843;51.320;12.340;2023-07-31T06:46:01;99857.81;;;17.77;100.00
38038;BME280;23843;51.320;12.340;2023-07-31T06:48:29;99858.97;;;17.84;100.00
38038;BME280;23843;51.320;12.340;2023-07-31T06:50:56;99861.22;;;17.89;100.00
38038;BME280;23843;51.320;12.340;2023-07-31T06:53:21;99856.88;;;17.88;100.00
38038;BME280;23843;51.320;12.340;2023-07-31T06:55:47;99861.50;;;17.95;100.00
38038;BME280;23843;51.320;12.340;2023-07-31T06:58:12;99861.94;;;18.01;100.00
38038;BME280;23843;51.320;12.340;2023-07-31T07:00:37;99859.81;;;17.94;100.00
38038;BME280;23843;51.320;12.340;2023-07-31T07:03:03;99864.91;;;17.98;100.00
38038;BME280;23843;51.320;12.340;2023-07-31T07:05:28;99857.84;;;17.96;100.00
38038;BME280;23843;51.320;12.340;2023-07-31T07:07:55;99867.72;;;17.96;100.00
38038;BME280;23843;51.320;12.340;2023-07-31T07:10:21;99854.88;;;18.00;100.00
38038;BME280;23843;51.320;12.340;2023-07-31T07:12:48;99863.34;;;17.95;100.00
38038;BME280;23843;51.320;12.340;2023-07-31T07:15:13;99858.13;;;17.93;100.00
38038;BME280;23843;51.320;12.340;2023-07-31T07:17:39;99858.41;;;18.00;100.00
38038;BME280;23843;51.320;12.340;2023-07-31T07:20:06;99856.16;;;17.95;100.00
38038;BME280;23843;51.320;12.340;2023-07-31T07:22:31;99852.75;;;17.93;100.00
38038;BME280;23843;51.320;12.340;2023-07-31T07:24:58;99844.72;;;17.93;100.00
38038;BME280;23843;51.320;12.340;2023-07-31T07:27:23;99842.75;;;17.95;100.00
38038;BME280;23843;51.320;12.340;2023-07-31T07:29:50;99845.13;;;17.99;100.00
38038;BME280;23843;51.320;12.340;2023-07-31T07:32:16;99833.84;;;18.05;100.00
38038;BME280;23843;51.320;12.340;2023-07-31T07:34:41;99837.78;;;18.10;100.00
38038;BME280;23843;51.320;12.340;2023-07-31T07:37:06;99843.25;;;18.18;100.00
38038;BME280;23843;51.320;12.340;2023-07-31T07:39:32;99836.50;;;18.24;100.00
38038;BME280;23843;51.320;12.340;2023-07-31T07:41:59;99832.94;;;18.24;100.00
38038;BME280;23843;51.320;12.340;2023-07-31T07:44:24;99840.28;;;18.31;100.00
38038;BME280;23843;51.320;12.340;2023-07-31T07:46:50;99829.38;;;18.43;100.00
38038;BME280;23843;51.320;12.340;2023-07-31T07:49:15;99834.88;;;18.51;100.00
38038;BME280;23843;51.320;12.340;2023-07-31T07:51:41;99834.09;;;18.68;100.00
38038;BME280;23843;51.320;12.340;2023-07-31T07:54:06;99833.06;;;18.79;100.00
38038;BME280;23843;51.320;12.340;2023-07-31T07:56:32;99838.69;;;18.86;100.00
38038;BME280;23843;51.320;12.340;2023-07-31T07:58:59;99836.22;;;19.02;100.00
38038;BME280;23843;51.320;12.340;2023-07-31T08:01:25;99834.00;;;19.15;100.00
38038;BME280;23843;51.320;12.340;2023-07-31T08:03:50;99832.72;;;19.19;100.00
38038;BME280;23843;51.320;12.340;2023-07-31T08:06:15;99835.47;;;19.28;100.00
38038;BME280;23843;51.320;12.340;2023-07-31T08:08:42;99828.81;;;19.32;100.00
38038;BME280;23843;51.320;12.340;2023-07-31T08:11:07;99833.56;;;19.38;100.00
38038;BME280;23843;51.320;12.340;2023-07-31T08:13:32;99826.06;;;19.41;100.00
38038;BME280;23843;51.320;12.340;2023-07-31T08:15:59;99827.28;;;19.47;100.00
38038;BME280;23843;51.320;12.340;2023-07-31T08:18:25;99824.66;;;19.55;100.00
38038;BME280;23843;51.320;12.340;2023-07-31T08:20:50;99826.69;;;19.53;100.00
38038;BME280;23843;51.320;12.340;2023-07-31T08:23:16;99830.34;;;19.52;100.00
38038;BME280;23843;51.320;12.340;2023-07-31T08:25:41;99824.00;;;19.53;100.00
38038;BME280;23843;51.320;12.340;2023-07-31T08:28:07;99830.72;;;19.57;100.00
38038;BME280;23843;51.320;12.340;2023-07-31T08:30:32;99831.22;;;19.71;100.00
38038;BME280;23843;51.320;12.340;2023-07-31T08:32:59;99826.66;;;19.89;100.00
38038;BME280;23843;51.320;12.340;2023-07-31T08:35:26;99826.47;;;20.08;100.00
38038;BME280;23843;51.320;12.340;2023-07-31T08:37:51;99820.88;;;20.28;100.00
38038;BME280;23843;51.320;12.340;2023-07-31T08:40:17;99813.59;;;20.46;100.00
38038;BME280;23843;51.320;12.340;2023-07-31T08:42:46;99816.56;;;20.61;100.00
38038;BME280;23843;51.320;12.340;2023-07-31T08:45:14;99821.53;;;20.82;100.00
38038;BME280;23843;51.320;12.340;2023-07-31T08:47:40;99826.63;;;20.93;99.94
38038;BME280;23843;51.320;12.340;2023-07-31T08:50:09;99826.00;;;21.00;98.92
38038;BME280;23843;51.320;12.340;2023-07-31T08:52:35;99832.34;;;20.90;94.90
38038;BME280;23843;51.320;12.340;2023-07-31T08:55:00;99834.34;;;20.88;97.63
38038;BME280;23843;51.320;12.340;2023-07-31T08:57:26;99824.22;;;20.82;96.36
38038;BME280;23843;51.320;12.340;2023-07-31T08:59:51;99831.25;;;20.75;97.57
38038;BME280;23843;51.320;12.340;2023-07-31T09:02:18;99831.88;;;20.61;96.90
38038;BME280;23843;51.320;12.340;2023-07-31T09:07:12;99828.81;;;20.56;96.84
38038;BME280;23843;51.320;12.340;2023-07-31T09:09:39;99833.91;;;20.67;97.58
38038;BME280;23843;51.320;12.340;2023-07-31T09:12:06;99826.88;;;20.74;96.30
38038;BME280;23843;51.320;12.340;2023-07-31T09:14:32;99830.94;;;20.78;96.25
38038;BME280;23843;51.320;12.340;2023-07-31T09:16:58;99832.97;;;20.76;96.07
38038;BME280;23843;51.320;12.340;2023-07-31T09:19:28;99819.53;;;20.84;97.02
38038;BME280;23843;51.320;12.340;2023-07-31T09:21:57;99827.59;;;20.84;95.41
38038;BME280;23843;51.320;12.340;2023-07-31T09:24:28;99828.13;;;20.88;95.49
38038;BME280;23843;51.320;12.340;2023-07-31T09:26:54;99830.16;;;20.94;97.33
38038;BME280;23843;51.320;12.340;2023-07-31T09:29:20;99836.06;;;20.98;98.08
38038;BME280;23843;51.320;12.340;2023-07-31T09:31:46;99833.69;;;20.94;97.01
38038;BME280;23843;51.320;12.340;2023-07-31T09:34:11;99828.31;;;20.94;97.06
38038;BME280;23843;51.320;12.340;2023-07-31T09:36:40;99823.03;;;20.85;94.43
38038;BME280;23843;51.320;12.340;2023-07-31T09:39:09;99824.16;;;20.66;94.33
38038;BME280;23843;51.320;12.340;2023-07-31T09:41:37;99821.72;;;20.55;93.48
38038;BME280;23843;51.320;12.340;2023-07-31T09:44:03;99819.00;;;20.46;94.94
38038;BME280;23843;51.320;12.340;2023-07-31T09:46:30;99810.22;;;20.44;96.59
38038;BME280;23843;51.320;12.340;2023-07-31T09:49:04;99814.28;;;20.48;96.09
38038;BME280;23843;51.320;12.340;2023-07-31T09:51:29;99810.25;;;20.52;97.47
38038;BME280;23843;51.320;12.340;2023-07-31T09:53:55;99814.38;;;20.57;96.14
38038;BME280;23843;51.320;12.340;2023-07-31T09:56:21;99805.31;;;20.66;95.60
38038;BME280;23843;51.320;12.340;2023-07-31T09:58:48;99807.22;;;20.82;95.81
38038;BME280;23843;51.320;12.340;2023-07-31T10:01:13;99803.06;;;20.87;95.23
38038;BME280;23843;51.320;12.340;2023-07-31T10:03:39;99799.97;;;20.82;92.08
38038;BME280;23843;51.320;12.340;2023-07-31T10:06:08;99798.47;;;20.80;95.86
38038;BME280;23843;51.320;12.340;2023-07-31T10:08:35;99788.78;;;20.95;98.21
38038;BME280;23843;51.320;12.340;2023-07-31T10:11:02;99790.00;;;21.25;97.25
38038;BME280;23843;51.320;12.340;2023-07-31T10:13:28;99792.09;;;21.64;97.36
38038;BME280;23843;51.320;12.340;2023-07-31T10:15:59;99788.72;;;22.03;93.63
38038;BME280;23843;51.320;12.340;2023-07-31T10:18:25;99785.63;;;22.39;93.39
38038;BME280;23843;51.320;12.340;2023-07-31T10:20:51;99780.72;;;22.82;91.77
38038;BME280;23843;51.320;12.340;2023-07-31T10:23:17;99779.38;;;23.17;88.29
38038;BME280;23843;51.320;12.340;2023-07-31T10:25:43;99783.75;;;23.18;82.92
38038;BME280;23843;51.320;12.340;2023-07-31T10:28:11;99784.06;;;23.23;79.66
38038;BME280;23843;51.320;12.340;2023-07-31T10:30:37;99783.84;;;23.02;79.10
38038;BME280;23843;51.320;12.340;2023-07-31T10:33:05;99787.75;;;22.99;77.51
38038;BME280;23843;51.320;12.340;2023-07-31T10:35:31;99783.88;;;22.94;78.05
38038;BME280;23843;51.320;12.340;2023-07-31T10:38:09;99784.44;;;22.81;76.92
38038;BME280;23843;51.320;12.340;2023-07-31T10:40:35;99787.06;;;22.66;80.80
38038;BME280;23843;51.320;12.340;2023-07-31T10:43:00;99777.44;;;22.63;80.15
38038;BME280;23843;51.320;12.340;2023-07-31T10:45:31;99781.16;;;22.62;80.73
38038;BME280;23843;51.320;12.340;2023-07-31T10:48:00;99774.91;;;22.62;83.47
38038;BME280;23843;51.320;12.340;2023-07-31T10:50:27;99767.47;;;22.64;81.41
38038;BME280;23843;51.320;12.340;2023-07-31T10:52:54;99765.25;;;22.68;81.69
38038;BME280;23843;51.320;12.340;2023-07-31T10:55:28;99773.03;;;22.71;80.29
38038;BME280;23843;51.320;12.340;2023-07-31T10:57:55;99765.50;;;22.89;79.28
38038;BME280;23843;51.320;12.340;2023-07-31T11:00:22;99760.72;;;22.99;76.64
38038;BME280;23843;51.320;12.340;2023-07-31T11:03:00;99761.91;;;23.05;77.15
38038;BME280;23843;51.320;12.340;2023-07-31T11:05:44;99746.53;;;23.28;77.82
38038;BME280;23843;51.320;12.340;2023-07-31T11:08:11;99750.72;;;23.31;76.67
38038;BME280;23843;51.320;12.340;2023-07-31T11:10:37;99741.78;;;23.31;74.00
38038;BME280;23843;51.320;12.340;2023-07-31T11:13:04;99733.22;;;23.27;73.77
38038;BME280;23843;51.320;12.340;2023-07-31T11:15:29;99718.25;;;23.39;74.32
38038;BME280;23843;51.320;12.340;2023-07-31T11:17:55;99718.06;;;23.41;71.43
38038;BME280;23843;51.320;12.340;2023-07-31T11:20:22;99707.81;;;23.36;71.01
38038;BME280;23843;51.320;12.340;2023-07-31T11:22:49;99716.13;;;23.49;72.73
38038;BME280;23843;51.320;12.340;2023-07-31T11:25:15;99700.50;;;23.60;70.31
38038;BME280;23843;51.320;12.340;2023-07-31T11:27:41;99703.75;;;23.70;71.92
38038;BME280;23843;51.320;12.340;2023-07-31T11:30:07;99690.59;;;23.75;70.25
38038;BME280;23843;51.320;12.340;2023-07-31T11:32:33;99709.44;;;23.83;72.40
38038;BME280;23843;51.320;12.340;2023-07-31T11:34:58;99694.53;;;23.87;69.17
38038;BME280;23843;51.320;12.340;2023-07-31T11:37:24;99695.25;;;23.96;68.09
38038;BME280;23843;51.320;12.340;2023-07-31T11:40:00;99688.44;;;24.00;68.89
38038;BME280;23843;51.320;12.340;2023-07-31T11:42:26;99693.75;;;23.93;66.90
38038;BME280;23843;51.320;12.340;2023-07-31T11:44:51;99695.81;;;23.91;67.80
38038;BME280;23843;51.320;12.340;2023-07-31T11:47:17;99697.13;;;23.96;70.24
38038;BME280;23843;51.320;12.340;2023-07-31T11:49:43;99696.34;;;23.87;68.13
38038;BME280;23843;51.320;12.340;2023-07-31T11:52:09;99693.75;;;23.79;67.87
38038;BME280;23843;51.320;12.340;2023-07-31T11:54:35;99696.41;;;23.64;67.38
38038;BME280;23843;51.320;12.340;2023-07-31T11:57:02;99689.38;;;23.55;67.86
38038;BME280;23843;51.320;12.340;2023-07-31T11:59:29;99693.47;;;23.50;73.13
38038;BME280;23843;51.320;12.340;2023-07-31T12:01:55;99692.75;;;23.57;72.91
38038;BME280;23843;51.320;12.340;2023-07-31T12:04:21;99684.84;;;23.70;73.96
38038;BME280;23843;51.320;12.340;2023-07-31T12:06:46;99691.44;;;23.67;73.78
38038;BME280;23843;51.320;12.340;2023-07-31T12:09:14;99684.19;;;23.68;73.90
38038;BME280;23843;51.320;12.340;2023-07-31T12:11:43;99681.81;;;23.73;73.40
38038;BME280;23843;51.320;12.340;2023-07-31T12:14:21;99690.22;;;23.78;69.52
38038;BME280;23843;51.320;12.340;2023-07-31T12:16:47;99688.78;;;23.82;69.04
38038;BME280;23843;51.320;12.340;2023-07-31T12:19:13;99684.44;;;23.81;66.19
38038;BME280;23843;51.320;12.340;2023-07-31T12:21:38;99680.06;;;23.80;65.64
38038;BME280;23843;51.320;12.340;2023-07-31T12:24:04;99678.72;;;23.76;64.78
38038;BME280;23843;51.320;12.340;2023-07-31T12:26:34;99676.09;;;23.68;67.49
38038;BME280;23843;51.320;12.340;2023-07-31T12:28:59;99669.88;;;23.82;67.54
38038;BME280;23843;51.320;12.340;2023-07-31T12:31:28;99678.91;;;24.04;68.63
38038;BME280;23843;51.320;12.340;2023-07-31T12:33:53;99664.56;;;24.04;65.79
38038;BME280;23843;51.320;12.340;2023-07-31T12:36:22;99657.75;;;24.08;67.08
38038;BME280;23843;51.320;12.340;2023-07-31T12:38:49;99664.75;;;24.17;66.21
38038;BME280;23843;51.320;12.340;2023-07-31T12:41:15;99664.53;;;24.19;65.44